Time;durP1;ratioP1;P1;durP2;ratioP2;P2;SDS_P1;SDS_P2;PMS_P1;PMS_P2;Temp;Humidity;BMP_temperature;BMP_pressure;BME280_temperature;BME280_humidity;BME280_pressure;Samples;Min_cycle;Max_cycle;Signal;HPM_P1;HPM_P2
2021/06/21 00:02:29;;;;;;;23.50;16.88;;;;;;;18.07;100.00;100575.38;5263109;28;20039;-87
2021/06/21 00:04:59;;;;;;;26.75;17.92;;;;;;;18.06;100.00;100575.59;5245484;28;20515;-87
2021/06/21 00:07:30;;;;;;;27.80;17.80;;;;;;;17.93;100.00;100573.00;5249111;28;20570;-87
2021/06/21 00:10:01;;;;;;;30.88;19.90;;;;;;;17.83;100.00;100570.78;5246984;28;20044;-87
2021/06/21 00:12:31;;;;;;;27.65;18.55;;;;;;;17.76;100.00;100572.69;5264150;28;20387;-87
2021/06/21 00:15:03;;;;;;;28.65;18.88;;;;;;;17.86;100.00;100559.47;5245987;28;20020;-87
2021/06/21 00:17:34;;;;;;;35.47;19.60;;;;;;;17.77;100.00;100568.94;5255911;28;20028;-87
2021/06/21 00:20:05;;;;;;;28.55;19.77;;;;;;;17.65;100.00;100568.78;5244037;28;20094;-87
2021/06/21 00:22:36;;;;;;;32.53;20.17;;;;;;;17.55;100.00;100582.81;5257464;28;20065;-87
2021/06/21 00:25:07;;;;;;;29.13;19.25;;;;;;;17.55;100.00;100571.16;5264071;28;20028;-87
2021/06/21 00:27:39;;;;;;;32.05;21.35;;;;;;;17.52;100.00;100575.16;5250704;28;20149;-87
2021/06/21 00:30:13;;;;;;;32.95;21.60;;;;;;;17.49;100.00;100585.59;5264047;28;20434;-87
2021/06/21 00:32:45;;;;;;;37.47;22.13;;;;;;;17.43;100.00;100583.75;5246565;28;20077;-87
2021/06/21 00:35:18;;;;;;;36.95;22.10;;;;;;;17.38;100.00;100591.72;5243414;28;20016;-87
2021/06/21 00:37:49;;;;;;;37.50;22.27;;;;;;;17.35;100.00;100591.06;5252931;28;20024;-87
2021/06/21 00:40:20;;;;;;;39.10;21.38;;;;;;;17.37;100.00;100581.88;5263832;28;20049;-87
2021/06/21 00:42:50;;;;;;;41.70;23.20;;;;;;;17.31;100.00;100587.13;5264091;28;20260;-88
2021/06/21 00:45:22;;;;;;;35.00;21.45;;;;;;;17.35;100.00;100582.94;5264110;28;20121;-87
2021/06/21 00:47:54;;;;;;;39.60;21.77;;;;;;;17.34;100.00;100586.72;5263879;28;20490;-87
2021/06/21 00:50:27;;;;;;;31.25;20.67;;;;;;;17.34;100.00;100573.16;5247877;28;20375;-87
2021/06/21 00:53:00;;;;;;;36.88;20.08;;;;;;;17.37;100.00;100573.75;5250628;28;20031;-87
2021/06/21 00:55:30;;;;;;;31.20;20.05;;;;;;;17.30;100.00;100574.63;5261662;28;20039;-87
2021/06/21 00:58:02;;;;;;;38.88;22.00;;;;;;;17.25;100.00;100576.34;5266008;28;20479;-87
2021/06/21 01:00:32;;;;;;;37.70;23.48;;;;;;;17.25;100.00;100579.88;5260896;28;20506;-86
2021/06/21 01:03:04;;;;;;;45.80;24.10;;;;;;;17.23;100.00;100587.41;5246989;28;20054;-86
2021/06/21 01:05:36;;;;;;;36.50;21.77;;;;;;;17.30;100.00;100579.22;5248989;28;20032;-86
2021/06/21 01:08:08;;;;;;;33.05;20.20;;;;;;;17.39;100.00;100577.94;5260072;28;20095;-86
2021/06/21 01:10:43;;;;;;;34.72;20.10;;;;;;;17.36;100.00;100575.63;5247097;28;20032;-87
2021/06/21 01:13:23;;;;;;;35.78;21.05;;;;;;;17.35;100.00;100573.97;5247892;28;20047;-86
2021/06/21 01:16:07;;;;;;;42.70;23.40;;;;;;;17.26;100.00;100565.25;5246838;28;20028;-87
2021/06/21 01:18:44;;;;;;;32.47;19.42;;;;;;;17.27;100.00;100566.94;5246908;28;20074;-87
2021/06/21 01:21:31;;;;;;;30.73;18.92;;;;;;;17.20;100.00;100566.13;5260094;28;20437;-87
2021/06/21 01:24:51;;;;;;;37.83;18.65;;;;;;;17.15;100.00;100568.66;5247375;28;20115;-87
2021/06/21 01:27:50;;;;;;;32.88;19.67;;;;;;;17.17;100.00;100560.31;5246777;28;20020;-87
2021/06/21 01:30:32;;;;;;;36.88;21.30;;;;;;;17.14;100.00;100558.03;5246559;28;20445;-86
2021/06/21 01:33:04;;;;;;;33.72;20.38;;;;;;;17.18;100.00;100559.28;5247695;28;20227;-86
2021/06/21 01:35:39;;;;;;;32.78;19.02;;;;;;;17.17;100.00;100561.16;5246803;28;20051;-87
2021/06/21 01:38:16;;;;;;;32.03;19.08;;;;;;;17.18;100.00;100562.81;5247572;28;20025;-86
2021/06/21 01:40:52;;;;;;;30.65;18.88;;;;;;;17.15;100.00;100567.84;5246248;28;20324;-86
2021/06/21 01:43:27;;;;;;;32.53;18.80;;;;;;;17.12;100.00;100563.69;5246440;28;20028;-86
2021/06/21 01:46:02;;;;;;;31.50;18.70;;;;;;;17.06;100.00;100561.81;5246564;28;20034;-86
2021/06/21 01:48:37;;;;;;;35.05;20.23;;;;;;;17.04;100.00;100555.78;5246334;28;20039;-87
2021/06/21 01:51:07;;;;;;;31.67;19.52;;;;;;;16.98;100.00;100551.25;5246050;28;20497;-87
2021/06/21 01:53:40;;;;;;;38.35;21.42;;;;;;;16.97;100.00;100544.16;5246648;28;20073;-86
2021/06/21 01:56:23;;;;;;;38.90;20.92;;;;;;;16.97;100.00;100546.88;5246077;28;20021;-87
2021/06/21 01:59:01;;;;;;;40.70;22.70;;;;;;;16.94;100.00;100552.72;5251620;28;20111;-87
2021/06/21 02:01:37;;;;;;;38.42;21.42;;;;;;;16.95;100.00;100536.22;5266453;28;20024;-86
2021/06/21 02:04:10;;;;;;;41.45;21.95;;;;;;;16.87;100.00;100536.50;5257986;28;20064;-86
2021/06/21 02:06:42;;;;;;;37.60;22.85;;;;;;;16.93;100.00;100542.94;5263914;28;20415;-86
2021/06/21 02:09:15;;;;;;;40.33;22.13;;;;;;;16.91;100.00;100537.72;5254777;28;20024;-86
2021/06/21 02:11:47;;;;;;;37.28;21.48;;;;;;;16.93;100.00;100542.94;5263819;28;20064;-86
2021/06/21 02:14:36;;;;;;;42.45;24.88;;;;;;;16.81;100.00;100531.91;5265428;28;20082;-86
2021/06/21 02:17:09;;;;;;;40.22;22.27;;;;;;;16.81;100.00;100546.28;5245599;28;20048;-86
2021/06/21 02:19:40;;;;;;;39.35;23.90;;;;;;;16.82;100.00;100537.13;5245399;28;20029;-86
2021/06/21 02:22:11;;;;;;;42.63;25.77;;;;;;;16.88;100.00;100540.03;5256082;28;20012;-86
2021/06/21 02:24:42;;;;;;;35.90;24.17;;;;;;;16.83;100.00;100546.09;5248691;28;20352;-86
2021/06/21 02:27:13;;;;;;;41.53;24.48;;;;;;;16.85;100.00;100543.16;5245638;28;20024;-86
2021/06/21 02:29:44;;;;;;;44.33;24.40;;;;;;;16.81;100.00;100545.47;5258886;28;20024;-86
2021/06/21 02:32:15;;;;;;;48.03;24.13;;;;;;;16.71;100.00;100537.78;5258318;28;20016;-86
2021/06/21 02:34:46;;;;;;;46.45;24.10;;;;;;;16.66;100.00;100537.56;5245603;28;20438;-86
2021/06/21 02:37:16;;;;;;;41.92;24.48;;;;;;;16.70;100.00;100546.09;5254612;28;20024;-86
2021/06/21 02:39:47;;;;;;;38.67;22.65;;;;;;;16.65;100.00;100546.75;5245063;28;20287;-86
2021/06/21 02:42:18;;;;;;;36.75;21.00;;;;;;;16.67;100.00;100550.09;5256861;28;20089;-86
2021/06/21 02:44:48;;;;;;;33.70;18.35;;;;;;;16.72;100.00;100549.47;5244190;28;20111;-86
2021/06/21 02:47:19;;;;;;;29.45;18.58;;;;;;;16.65;100.00;100543.19;5248858;28;20123;-85
2021/06/21 02:49:51;;;;;;;33.13;19.05;;;;;;;16.60;100.00;100554.66;5254451;28;20028;-86
2021/06/21 02:53:02;;;;;;;33.65;20.52;;;;;;;16.63;100.00;100548.00;5258427;28;20111;-85
2021/06/21 02:56:07;;;;;;;28.30;17.88;;;;;;;16.51;100.00;100542.41;5213212;28;20511;-85
2021/06/21 02:58:40;;;;;;;28.02;16.95;;;;;;;16.48;100.00;100548.25;5261147;28;20072;-85
2021/06/21 03:01:13;;;;;;;31.08;16.80;;;;;;;16.45;100.00;100549.50;5264791;28;20063;-84
2021/06/21 03:03:54;;;;;;;26.33;16.52;;;;;;;16.48;100.00;100545.56;5252423;28;20103;-84
2021/06/21 03:06:26;;;;;;;23.90;15.88;;;;;;;16.50;100.00;100543.44;5265257;28;20054;-85
2021/06/21 03:08:57;;;;;;;21.52;13.25;;;;;;;16.44;100.00;100545.13;5257464;28;20044;-85
2021/06/21 03:11:29;;;;;;;22.30;12.95;;;;;;;16.39;100.00;100541.41;5259738;28;20091;-85
2021/06/21 03:14:00;;;;;;;22.33;14.07;;;;;;;16.33;100.00;100540.38;5264007;28;20164;-85
2021/06/21 03:16:33;;;;;;;24.80;14.15;;;;;;;16.23;100.00;100531.88;5251358;28;20027;-85
2021/06/21 03:19:04;;;;;;;22.42;14.48;;;;;;;16.23;100.00;100537.28;5254717;28;20567;-85
2021/06/21 03:21:35;;;;;;;18.70;12.25;;;;;;;16.15;100.00;100543.72;5248017;28;20103;-85
2021/06/21 03:24:07;;;;;;;17.17;11.55;;;;;;;16.10;100.00;100546.22;5252986;28;20031;-85
2021/06/21 03:26:37;;;;;;;18.30;13.38;;;;;;;16.05;100.00;100541.44;5257705;28;20389;-85
2021/06/21 03:29:16;;;;;;;21.27;13.90;;;;;;;16.02;100.00;100547.28;5257219;28;20024;-84
2021/06/21 03:31:49;;;;;;;18.95;13.10;;;;;;;16.00;100.00;100548.53;5252769;28;20386;-84
2021/06/21 03:34:24;;;;;;;17.95;11.85;;;;;;;15.95;100.00;100542.91;5262406;28;20031;-85
2021/06/21 03:36:55;;;;;;;17.38;11.32;;;;;;;15.89;100.00;100535.63;5234884;28;20059;-86
2021/06/21 03:39:25;;;;;;;19.15;11.88;;;;;;;15.83;100.00;100545.41;5262228;28;20396;-85
2021/06/21 03:41:56;;;;;;;18.35;12.20;;;;;;;15.77;100.00;100541.69;5265023;28;20482;-86
2021/06/21 03:44:26;;;;;;;18.73;11.98;;;;;;;15.73;100.00;100545.00;5250915;28;20332;-86
2021/06/21 03:46:56;;;;;;;18.40;11.40;;;;;;;15.69;100.00;100552.69;5264958;28;20052;-85
2021/06/21 03:49:27;;;;;;;17.73;10.65;;;;;;;15.61;100.00;100547.44;5257460;28;20027;-86
2021/06/21 03:51:58;;;;;;;19.10;10.90;;;;;;;15.62;100.00;100561.81;5257453;28;20077;-85
2021/06/21 03:54:28;;;;;;;17.55;10.95;;;;;;;15.56;100.00;100560.75;5252138;28;20031;-86
2021/06/21 03:56:58;;;;;;;19.20;12.48;;;;;;;15.53;100.00;100558.47;5249398;28;20103;-86
2021/06/21 03:59:29;;;;;;;20.55;12.93;;;;;;;15.50;100.00;100558.88;5253863;28;20024;-86
2021/06/21 04:02:00;;;;;;;23.67;14.13;;;;;;;15.48;100.00;100555.53;5251498;28;20028;-86
2021/06/21 04:04:30;;;;;;;29.10;14.82;;;;;;;15.42;100.00;100564.47;5264694;28;20107;-86
2021/06/21 04:07:01;;;;;;;27.45;15.63;;;;;;;15.38;100.00;100555.13;5257216;28;20025;-86
2021/06/21 04:09:31;;;;;;;23.75;13.93;;;;;;;15.38;100.00;100561.34;5243740;28;20032;-85
2021/06/21 04:12:03;;;;;;;24.25;14.30;;;;;;;15.28;100.00;100567.16;5257065;28;20510;-86
2021/06/21 04:14:34;;;;;;;19.45;12.23;;;;;;;15.30;100.00;100569.63;5244694;28;20067;-86
2021/06/21 04:17:04;;;;;;;16.38;12.10;;;;;;;15.27;100.00;100570.88;5264787;28;20145;-86
2021/06/21 04:19:35;;;;;;;18.30;11.75;;;;;;;15.22;100.00;100573.38;5262468;28;20106;-86
2021/06/21 04:22:05;;;;;;;22.98;12.23;;;;;;;15.18;100.00;100582.91;5252574;28;20034;-85
2021/06/21 04:24:36;;;;;;;19.35;11.48;;;;;;;15.16;100.00;100579.59;5247713;28;20115;-85
2021/06/21 04:27:06;;;;;;;18.05;11.82;;;;;;;15.09;100.00;100584.13;5253456;28;20394;-86
2021/06/21 04:29:37;;;;;;;19.60;11.07;;;;;;;15.10;100.00;100590.34;5250342;28;20024;-86
2021/06/21 04:32:08;;;;;;;16.80;10.20;;;;;;;15.06;100.00;100587.25;5265131;28;20020;-85
2021/06/21 04:34:38;;;;;;;16.48;10.50;;;;;;;15.03;100.00;100585.75;5269083;28;20038;-86
2021/06/21 04:37:09;;;;;;;14.32;9.77;;;;;;;14.98;100.00;100582.84;5263915;28;20067;-85
2021/06/21 04:39:39;;;;;;;15.60;9.25;;;;;;;14.99;100.00;100592.59;5260753;28;20487;-85
2021/06/21 04:42:10;;;;;;;13.93;9.68;;;;;;;14.95;100.00;100593.19;5261387;28;20609;-86
2021/06/21 04:44:40;;;;;;;14.88;9.35;;;;;;;14.95;100.00;100598.59;5260146;28;20028;-85
2021/06/21 04:47:11;;;;;;;16.75;10.45;;;;;;;14.92;100.00;100590.91;5262769;28;20096;-85
2021/06/21 04:49:41;;;;;;;14.98;9.38;;;;;;;14.92;100.00;100594.44;5267771;28;20104;-86
2021/06/21 04:52:12;;;;;;;16.88;9.38;;;;;;;14.92;100.00;100593.63;5254433;28;20009;-85
2021/06/21 04:54:43;;;;;;;15.77;8.70;;;;;;;14.88;100.00;100590.47;5257690;28;20024;-86
2021/06/21 04:57:13;;;;;;;14.32;7.93;;;;;;;14.85;100.00;100601.66;5260824;28;20028;-86
2021/06/21 04:59:44;;;;;;;11.82;7.88;;;;;;;14.82;100.00;100598.56;5259677;28;20514;-86
2021/06/21 05:02:15;;;;;;;13.30;8.13;;;;;;;14.82;100.00;100598.56;5247685;28;20060;-85
2021/06/21 05:04:45;;;;;;;13.23;7.30;;;;;;;14.76;100.00;100600.19;5248938;28;20099;-85
2021/06/21 05:07:16;;;;;;;8.30;6.72;;;;;;;14.72;100.00;100605.16;5254397;28;20488;-86
2021/06/21 05:09:50;;;;;;;11.02;7.30;;;;;;;14.72;100.00;100599.75;5246673;28;20499;-85
2021/06/21 05:12:20;;;;;;;9.27;6.65;;;;;;;14.70;100.00;100606.38;5238416;28;20028;-85
2021/06/21 05:14:50;;;;;;;12.65;7.68;;;;;;;14.71;100.00;100611.59;5252062;28;20028;-85
2021/06/21 05:17:21;;;;;;;14.70;8.90;;;;;;;14.68;100.00;100611.16;5257381;28;20107;-86
2021/06/21 05:19:51;;;;;;;14.25;9.60;;;;;;;14.65;100.00;100612.34;5263520;28;20110;-86
2021/06/21 05:22:22;;;;;;;14.40;9.50;;;;;;;14.62;100.00;100628.97;5246875;28;20029;-86
2021/06/21 05:24:54;;;;;;;21.25;10.65;;;;;;;14.67;100.00;100622.97;5251671;28;20028;-86
2021/06/21 05:27:25;;;;;;;20.40;12.05;;;;;;;14.69;100.00;100624.44;5267762;28;20027;-86
2021/06/21 05:29:57;;;;;;;15.27;9.38;;;;;;;14.73;100.00;100624.88;5235901;28;20054;-86
2021/06/21 05:32:27;;;;;;;12.73;8.70;;;;;;;14.69;100.00;100624.44;5267301;28;20020;-85
2021/06/21 05:34:58;;;;;;;10.63;6.70;;;;;;;14.68;100.00;100632.75;5255724;28;20027;-85
2021/06/21 05:37:28;;;;;;;11.68;6.85;;;;;;;14.63;100.00;100637.91;5258092;28;20024;-85
2021/06/21 05:39:58;;;;;;;9.50;6.63;;;;;;;14.62;100.00;100644.34;5267781;28;20390;-85
2021/06/21 05:42:29;;;;;;;10.73;6.13;;;;;;;14.58;100.00;100651.16;5264161;28;20357;-85
2021/06/21 05:45:00;;;;;;;13.57;6.72;;;;;;;14.56;100.00;100651.38;5245831;28;20031;-85
2021/06/21 05:47:30;;;;;;;10.07;7.10;;;;;;;14.57;100.00;100658.44;5265445;28;20031;-85
2021/06/21 05:50:01;;;;;;;10.15;6.68;;;;;;;14.56;100.00;100664.00;5255421;28;20399;-85
2021/06/21 05:52:32;;;;;;;10.85;7.05;;;;;;;14.58;100.00;100664.66;5252420;28;20501;-85
2021/06/21 05:55:03;;;;;;;11.50;6.80;;;;;;;14.54;100.00;100666.06;5254527;28;20491;-86
2021/06/21 05:57:34;;;;;;;12.60;7.88;;;;;;;14.58;100.00;100665.50;5261198;28;20055;-84
2021/06/21 06:00:05;;;;;;;12.68;8.18;;;;;;;14.54;100.00;100672.31;5263232;28;20442;-84
2021/06/21 06:02:36;;;;;;;14.60;8.88;;;;;;;14.49;100.00;100670.19;5260094;28;20028;-84
2021/06/21 06:05:07;;;;;;;18.17;10.60;;;;;;;14.50;100.00;100677.25;5228758;28;20031;-85
2021/06/21 06:07:37;;;;;;;16.45;10.50;;;;;;;14.53;100.00;100675.22;5253448;28;20078;-85
2021/06/21 06:10:09;;;;;;;19.85;11.68;;;;;;;14.58;100.00;100678.16;5250174;28;20487;-85
2021/06/21 06:12:40;;;;;;;19.23;10.82;;;;;;;14.58;100.00;100694.34;5255356;28;20457;-85
2021/06/21 06:15:11;;;;;;;18.15;10.52;;;;;;;14.58;100.00;100689.78;5263878;28;20051;-86
2021/06/21 06:17:42;;;;;;;15.93;9.80;;;;;;;14.52;100.00;100700.53;5253474;28;20070;-85
2021/06/21 06:20:13;;;;;;;17.20;9.95;;;;;;;14.54;100.00;100712.78;5266489;28;20027;-85
2021/06/21 06:22:44;;;;;;;21.42;10.02;;;;;;;14.57;100.00;100714.28;5253254;28;20025;-85
2021/06/21 06:25:16;;;;;;;15.77;9.57;;;;;;;14.57;100.00;100714.28;5257174;28;20079;-84
2021/06/21 06:27:46;;;;;;;16.25;8.10;;;;;;;14.63;100.00;100716.19;5259431;28;20025;-85
2021/06/21 06:30:18;;;;;;;12.82;7.68;;;;;;;14.67;100.00;100714.78;5246588;28;20023;-85
2021/06/21 06:32:48;;;;;;;17.15;7.93;;;;;;;14.59;100.00;100728.41;5251851;28;20024;-85
2021/06/21 06:35:18;;;;;;;14.82;7.72;;;;;;;14.73;100.00;100731.03;5268170;28;20088;-85
2021/06/21 06:37:49;;;;;;;9.82;6.63;;;;;;;14.70;100.00;100734.09;5267463;28;20027;-85
2021/06/21 06:40:20;;;;;;;12.73;6.75;;;;;;;14.68;100.00;100736.19;5258714;28;20039;-85
2021/06/21 06:42:54;;;;;;;10.32;7.15;;;;;;;14.69;100.00;100750.50;5266349;28;20360;-85
2021/06/21 06:45:24;;;;;;;11.63;6.80;;;;;;;14.70;100.00;100747.59;5266187;28;20028;-85
2021/06/21 06:47:55;;;;;;;10.38;7.50;;;;;;;14.80;100.00;100762.63;5253982;28;20552;-85
2021/06/21 06:50:26;;;;;;;11.18;7.72;;;;;;;14.73;100.00;100755.31;5252462;28;20021;-82
2021/06/21 06:52:58;;;;;;;13.80;8.18;;;;;;;14.77;100.00;100767.41;5254983;28;20008;-82
2021/06/21 06:58:18;;;;;;;16.45;8.68;;;;;;;14.83;100.00;100775.75;5253993;28;20483;-85
2021/06/21 07:00:48;;;;;;;14.77;9.13;;;;;;;14.83;100.00;100782.00;5254255;28;20024;-85
2021/06/21 07:03:18;;;;;;;12.43;8.48;;;;;;;14.88;100.00;100781.41;5265254;28;20026;-85
2021/06/21 07:05:49;;;;;;;12.80;8.40;;;;;;;14.86;100.00;100788.84;5253509;28;20162;-85
2021/06/21 07:08:19;;;;;;;14.38;9.25;;;;;;;14.94;100.00;100780.63;5258394;28;20494;-85
2021/06/21 07:10:50;;;;;;;12.45;9.05;;;;;;;14.92;100.00;100775.41;5255107;28;20325;-85
2021/06/21 07:13:20;;;;;;;18.60;9.88;;;;;;;14.97;100.00;100774.84;5260700;28;20024;-85
2021/06/21 07:15:51;;;;;;;14.18;8.55;;;;;;;15.09;100.00;100772.41;5256731;28;20020;-85
2021/06/21 07:18:21;;;;;;;14.73;9.60;;;;;;;15.18;100.00;100773.94;5251734;28;20047;-85
2021/06/21 07:20:52;;;;;;;15.60;8.57;;;;;;;15.34;100.00;100764.66;5265164;28;20434;-85
2021/06/21 07:23:22;;;;;;;13.80;8.23;;;;;;;15.31;100.00;100770.47;5258657;28;20029;-85
2021/06/21 07:25:53;;;;;;;14.50;7.97;;;;;;;15.34;100.00;100765.50;5244002;28;20047;-85
2021/06/21 07:28:23;;;;;;;13.23;7.75;;;;;;;15.36;100.00;100757.19;5252505;28;20383;-84
2021/06/21 07:30:54;;;;;;;12.50;7.13;;;;;;;15.31;100.00;100754.25;5249905;28;20035;-85
2021/06/21 07:33:25;;;;;;;10.02;7.22;;;;;;;15.21;100.00;100741.09;5253579;28;20035;-85
2021/06/21 07:35:55;;;;;;;13.23;8.73;;;;;;;15.18;100.00;100750.44;5262145;28;20501;-85
2021/06/21 07:38:26;;;;;;;14.43;8.05;;;;;;;15.13;100.00;100744.81;5243959;28;20054;-85
2021/06/21 07:40:56;;;;;;;11.95;8.13;;;;;;;15.08;100.00;100741.88;5257851;28;20048;-85
2021/06/21 07:43:27;;;;;;;14.98;8.77;;;;;;;15.11;100.00;100727.09;5229502;28;20125;-85
2021/06/21 07:45:57;;;;;;;10.93;7.68;;;;;;;15.08;100.00;100722.94;5250321;28;20101;-85
2021/06/21 07:48:28;;;;;;;13.38;7.63;;;;;;;15.01;100.00;100705.88;5252234;28;20165;-85
2021/06/21 07:50:58;;;;;;;11.88;7.47;;;;;;;14.95;100.00;100695.84;5250672;28;20032;-85
2021/06/21 07:53:29;;;;;;;11.07;7.70;;;;;;;14.92;100.00;100701.66;5265242;28;20111;-85
2021/06/21 07:55:59;;;;;;;13.45;8.73;;;;;;;14.87;100.00;100688.75;5244075;28;20030;-84
2021/06/21 07:58:30;;;;;;;12.60;7.63;;;;;;;14.87;100.00;100680.66;5246614;28;20035;-85
2021/06/21 08:01:00;;;;;;;12.82;8.13;;;;;;;14.83;100.00;100683.94;5264667;28;20035;-85
2021/06/21 08:03:31;;;;;;;13.38;7.78;;;;;;;14.76;100.00;100679.34;5264607;28;20464;-85
2021/06/21 08:06:03;;;;;;;12.77;7.45;;;;;;;14.75;100.00;100683.03;5257021;28;20057;-85
2021/06/21 08:08:35;;;;;;;12.60;7.50;;;;;;;14.74;100.00;100688.66;5259159;28;20031;-85
2021/06/21 08:11:06;;;;;;;13.80;8.00;;;;;;;14.74;100.00;100705.69;5243922;28;20095;-84
2021/06/21 08:13:38;;;;;;;15.15;7.90;;;;;;;14.71;100.00;100721.47;5262737;28;20048;-87
2021/06/21 08:16:08;;;;;;;12.98;7.57;;;;;;;14.74;100.00;100745.34;5264975;28;20024;-85
2021/06/21 08:18:39;;;;;;;13.13;8.35;;;;;;;14.70;100.00;100776.47;5257095;28;20023;-85
2021/06/21 08:21:09;;;;;;;11.52;7.20;;;;;;;14.82;100.00;100798.41;5257415;28;20028;-84
2021/06/21 08:23:40;;;;;;;12.68;7.70;;;;;;;14.89;100.00;100810.91;5243786;28;20021;-84
2021/06/21 08:26:12;;;;;;;15.43;9.10;;;;;;;14.96;100.00;100819.94;5257468;28;20024;-85
2021/06/21 08:28:42;;;;;;;11.02;7.03;;;;;;;15.06;100.00;100816.03;5244055;28;20020;-85
2021/06/21 08:31:13;;;;;;;9.63;6.20;;;;;;;15.08;100.00;100822.91;5261124;28;20372;-85
2021/06/21 08:33:43;;;;;;;8.45;5.78;;;;;;;15.07;100.00;100818.56;5254378;28;20029;-84
2021/06/21 08:36:13;;;;;;;9.55;6.20;;;;;;;15.18;100.00;100817.16;5244419;28;20168;-85
2021/06/21 08:38:44;;;;;;;13.13;6.32;;;;;;;15.22;100.00;100813.03;5256311;28;20036;-85
2021/06/21 08:41:15;;;;;;;8.73;5.78;;;;;;;15.35;100.00;100813.13;5251128;28;20103;-84
2021/06/21 08:43:47;;;;;;;11.48;6.38;;;;;;;15.49;100.00;100809.47;5264725;28;20149;-84
2021/06/21 08:46:18;;;;;;;7.05;4.50;;;;;;;15.75;100.00;100806.09;5244037;28;20032;-84
2021/06/21 08:48:52;;;;;;;6.97;4.53;;;;;;;16.00;100.00;100795.56;5257260;28;20094;-85
2021/06/21 08:51:22;;;;;;;6.90;4.72;;;;;;;16.29;100.00;100796.28;5248275;28;20096;-84
2021/06/21 08:53:53;;;;;;;6.00;4.38;;;;;;;16.53;100.00;100779.47;5243548;28;20107;-84
2021/06/21 08:56:23;;;;;;;5.82;4.15;;;;;;;16.80;100.00;100782.19;5254699;28;20024;-84
2021/06/21 08:58:54;;;;;;;4.97;3.95;;;;;;;17.13;100.00;100768.63;5251233;28;20509;-84
2021/06/21 09:01:24;;;;;;;6.80;4.43;;;;;;;17.53;100.00;100765.81;5251770;28;20035;-85
2021/06/21 09:03:55;;;;;;;5.00;3.75;;;;;;;17.79;100.00;100768.47;5243800;28;20436;-85
2021/06/21 09:06:25;;;;;;;6.18;3.97;;;;;;;17.99;100.00;100770.25;5246669;28;20074;-84
2021/06/21 09:08:58;;;;;;;6.95;5.75;;;;;;;18.16;100.00;100784.97;5257128;28;20031;-85
2021/06/21 09:11:47;;;;;;;10.82;5.95;;;;;;;18.27;100.00;100797.88;5259782;28;20538;-85
2021/06/21 09:14:28;;;;;;;7.40;5.65;;;;;;;18.22;100.00;100803.09;5253483;28;20036;-85
2021/06/21 09:17:03;;;;;;;8.20;6.82;;;;;;;18.15;100.00;100815.06;5246026;28;20562;-87
2021/06/21 09:19:58;;;;;;;8.48;6.68;;;;;;;17.90;100.00;100817.69;5258562;28;20483;-85
2021/06/21 09:22:42;;;;;;;7.95;6.53;;;;;;;17.96;100.00;100828.50;5265611;28;20016;-85
2021/06/21 09:25:25;;;;;;;7.00;6.00;;;;;;;17.98;100.00;100831.00;5255781;28;20032;-85
2021/06/21 09:28:02;;;;;;;5.25;4.65;;;;;;;17.94;100.00;100829.78;5272257;28;20016;-85
2021/06/21 09:30:49;;;;;;;7.75;4.85;;;;;;;18.00;100.00;100831.63;5291219;28;20046;-84
2021/06/21 09:33:29;;;;;;;7.60;4.90;;;;;;;18.16;100.00;100839.25;5293541;28;20008;-86
2021/06/21 09:36:00;;;;;;;5.72;4.53;;;;;;;18.25;100.00;100848.84;5285269;28;20028;-84
2021/06/21 09:38:30;;;;;;;6.00;4.53;;;;;;;18.40;100.00;100861.28;5276561;28;20021;-84
2021/06/21 09:41:02;;;;;;;6.45;4.55;;;;;;;18.23;100.00;100863.69;5271923;28;20376;-85
2021/06/21 09:43:34;;;;;;;5.60;4.20;;;;;;;18.41;100.00;100866.50;5267263;28;20040;-84
2021/06/21 09:46:09;;;;;;;7.57;5.63;;;;;;;18.28;100.00;100863.88;5254808;28;20024;-84
2021/06/21 09:48:51;;;;;;;10.63;7.85;;;;;;;18.34;100.00;100863.84;5253090;28;20518;-84
2021/06/21 09:51:34;;;;;;;10.93;8.50;;;;;;;18.34;100.00;100869.25;5246966;28;20024;-84
2021/06/21 09:54:13;;;;;;;13.75;8.50;;;;;;;18.40;100.00;100870.28;5266168;28;20084;-84
2021/06/21 09:56:47;;;;;;;13.38;10.13;;;;;;;18.41;100.00;100866.50;5267538;28;20030;-83
2021/06/21 09:59:17;;;;;;;16.42;11.13;;;;;;;18.20;100.00;100883.94;5255499;28;20096;-84
2021/06/21 10:02:08;;;;;;;12.30;8.95;;;;;;;18.03;100.00;100883.59;5267487;28;20020;-83
2021/06/21 10:04:41;;;;;;;12.60;8.63;;;;;;;17.81;100.00;100893.88;5266018;28;20154;-84
2021/06/21 10:07:31;;;;;;;12.75;7.43;;;;;;;17.59;100.00;100895.16;5261118;28;20147;-83
2021/06/21 10:10:11;;;;;;;8.95;6.32;;;;;;;17.44;100.00;100914.38;5253399;28;20028;-84
2021/06/21 10:12:42;;;;;;;14.88;6.93;;;;;;;17.42;100.00;100904.75;5259561;28;20056;-84
2021/06/21 10:15:13;;;;;;;9.90;6.78;;;;;;;17.39;100.00;100900.63;5263699;28;20325;-84
2021/06/21 10:17:44;;;;;;;9.15;6.38;;;;;;;17.30;100.00;100902.69;5261110;28;20021;-84
2021/06/21 10:20:15;;;;;;;8.60;5.47;;;;;;;17.20;100.00;100910.41;5273288;28;20383;-84
2021/06/21 10:22:45;;;;;;;7.78;5.25;;;;;;;17.31;100.00;100920.63;5259979;28;20103;-85
2021/06/21 10:25:16;;;;;;;5.70;4.63;;;;;;;17.29;100.00;100921.88;5264584;28;20037;-85
2021/06/21 10:27:47;;;;;;;6.85;5.13;;;;;;;17.39;100.00;100926.91;5253708;28;20024;-85
2021/06/21 10:30:21;;;;;;;6.13;4.85;;;;;;;17.25;100.00;100934.19;5260168;28;20013;-85
2021/06/21 10:32:53;;;;;;;7.82;4.20;;;;;;;17.15;100.00;100936.47;5268579;28;20020;-85
2021/06/21 10:35:29;;;;;;;5.28;3.88;;;;;;;17.13;100.00;100936.69;5256398;28;20391;-85
2021/06/21 10:38:05;;;;;;;6.45;4.57;;;;;;;17.22;100.00;100943.59;5263833;28;20486;-85
2021/06/21 10:40:57;;;;;;;5.25;4.10;;;;;;;17.25;100.00;100945.88;5252823;28;20028;-85
2021/06/21 10:43:54;;;;;;;6.10;4.32;;;;;;;17.36;100.00;100941.69;5247453;28;20036;-85
2021/06/21 10:46:27;;;;;;;7.57;4.80;;;;;;;17.34;100.00;100946.50;5252206;28;20040;-84
2021/06/21 10:48:57;;;;;;;7.00;4.60;;;;;;;17.33;100.00;100951.09;5253610;28;20028;-84
2021/06/21 10:51:30;;;;;;;5.60;4.55;;;;;;;17.38;100.00;100960.50;5267810;28;20027;-85
2021/06/21 10:54:22;;;;;;;6.10;4.43;;;;;;;17.55;100.00;100967.16;5266926;28;20039;-85
2021/06/21 10:56:55;;;;;;;9.32;5.80;;;;;;;17.68;100.00;100969.88;5266666;28;20039;-85
2021/06/21 10:59:28;;;;;;;8.57;6.60;;;;;;;17.71;100.00;100968.59;5266750;28;20156;-84
2021/06/21 11:01:59;;;;;;;9.82;7.03;;;;;;;17.58;100.00;100970.28;5262550;28;20024;-85
2021/06/21 11:04:36;;;;;;;9.50;7.25;;;;;;;17.55;100.00;100965.28;5245099;28;20037;-85
2021/06/21 11:07:17;;;;;;;10.50;6.68;;;;;;;17.58;100.00;100969.47;5252155;28;20246;-84
2021/06/21 11:09:50;;;;;;;9.55;7.07;;;;;;;17.57;100.00;100981.31;5247029;28;20476;-86
2021/06/21 11:12:21;;;;;;;9.18;6.70;;;;;;;17.60;100.00;100979.03;5256084;28;20021;-86
2021/06/21 11:15:08;;;;;;;14.10;7.90;;;;;;;17.64;100.00;100974.03;5248695;28;20031;-86
2021/06/21 11:17:51;;;;;;;12.55;8.60;;;;;;;17.83;100.00;100988.66;5252258;28;20091;-86
2021/06/21 11:20:40;;;;;;;12.88;9.05;;;;;;;18.00;100.00;100980.91;5244562;28;20433;-86
2021/06/21 11:23:40;;;;;;;14.52;8.88;;;;;;;18.32;100.00;100985.44;5258244;28;20296;-86
2021/06/21 11:26:11;;;;;;;11.77;8.02;;;;;;;18.34;100.00;100987.94;5244324;28;20040;-86
2021/06/21 11:28:50;;;;;;;12.38;8.18;;;;;;;18.33;100.00;100988.97;5244669;28;20035;-86
2021/06/21 11:31:28;;;;;;;9.98;7.40;;;;;;;18.46;100.00;100993.53;5257622;28;20012;-86
2021/06/21 11:34:00;;;;;;;11.55;7.88;;;;;;;18.55;100.00;101003.94;5257483;28;20032;-86
2021/06/21 11:36:57;;;;;;;13.88;9.73;;;;;;;18.39;100.00;101001.69;5244405;28;20307;-84
2021/06/21 11:39:30;;;;;;;14.20;10.10;;;;;;;18.35;100.00;100993.13;5240587;28;20440;-86